Time;durP1;ratioP1;P1;durP2;ratioP2;P2;SDS_P1;SDS_P2;PMS_P1;PMS_P2;Temp;Humidity;BMP_temperature;BMP_pressure;BME280_temperature;BME280_humidity;BME280_pressure;Samples;Min_cycle;Max_cycle;Signal;HPM_P1;HPM_P2
2022/04/30 00:02:06;;;;;;;10.75;8.77;;;5.10;99.90;;;;;;4960492;28;89190;-35
2022/04/30 00:04:35;;;;;;;12.82;9.60;;;5.00;99.90;;;;;;4942652;28;89894;-38
2022/04/30 00:07:02;;;;;;;9.38;8.15;;;5.00;99.90;;;;;;4960278;28;89320;-33
2022/04/30 00:09:28;;;;;;;11.15;9.55;;;5.00;99.90;;;;;;4961143;28;89671;-33
2022/04/30 00:11:54;;;;;;;11.57;9.30;;;4.90;99.90;;;;;;4960437;28;88794;-34
2022/04/30 00:14:19;;;;;;;12.88;10.57;;;5.00;99.90;;;;;;4960047;28;90262;-35
2022/04/30 00:16:45;;;;;;;19.52;11.90;;;4.90;99.90;;;;;;4959526;28;89667;-35
2022/04/30 00:19:11;;;;;;;14.13;10.13;;;4.90;99.90;;;;;;4959627;28;89633;-36
2022/04/30 00:21:37;;;;;;;14.55;10.68;;;4.90;99.90;;;;;;4959857;28;88215;-34
2022/04/30 00:24:03;;;;;;;18.02;11.25;;;4.90;99.90;;;;;;4959096;28;90208;-33
2022/04/30 00:26:29;;;;;;;15.98;11.07;;;4.90;99.90;;;;;;4958934;28;90048;-35
2022/04/30 00:28:54;;;;;;;20.75;12.90;;;4.90;99.90;;;;;;4959098;28;91357;-32
2022/04/30 00:31:20;;;;;;;19.23;12.63;;;4.90;99.90;;;;;;4959500;28;89352;-37
2022/04/30 00:33:48;;;;;;;17.85;13.95;;;5.00;99.90;;;;;;4959157;28;90314;-34
2022/04/30 00:36:14;;;;;;;20.10;13.27;;;5.00;99.90;;;;;;5000035;22;89762;-33
2022/04/30 00:38:40;;;;;;;21.83;12.63;;;5.00;99.90;;;;;;4938928;28;88214;-35
2022/04/30 00:41:10;;;;;;;16.73;12.93;;;5.00;99.90;;;;;;4940073;28;88311;-34
2022/04/30 00:43:47;;;;;;;17.23;13.20;;;5.00;99.90;;;;;;4939933;28;89612;-32
2022/04/30 00:46:16;;;;;;;15.70;13.35;;;4.90;99.90;;;;;;4939864;28;89938;-34
2022/04/30 00:48:43;;;;;;;23.92;13.35;;;5.00;99.90;;;;;;4939217;28;88841;-33
2022/04/30 00:51:10;;;;;;;18.80;13.48;;;5.00;99.90;;;;;;4938862;28;89863;-34
2022/04/30 00:53:38;;;;;;;15.43;12.73;;;4.90;99.90;;;;;;4938795;28;89353;-37
2022/04/30 00:56:08;;;;;;;16.75;12.82;;;4.90;99.90;;;;;;4940314;28;90031;-33
2022/04/30 00:58:35;;;;;;;19.98;14.27;;;4.90;99.90;;;;;;4940132;28;90415;-32
2022/04/30 01:01:02;;;;;;;17.02;13.30;;;4.90;99.90;;;;;;4939303;28;89242;-34
2022/04/30 01:03:28;;;;;;;17.85;12.48;;;4.90;99.90;;;;;;4939039;28;89641;-32
2022/04/30 01:05:54;;;;;;;17.70;12.73;;;4.90;99.90;;;;;;4939355;28;90070;-36
2022/04/30 01:08:20;;;;;;;16.73;13.10;;;4.90;99.90;;;;;;4939860;28;89809;-32
2022/04/30 01:10:46;;;;;;;23.42;14.43;;;4.80;99.90;;;;;;4939199;28;89497;-35
2022/04/30 01:13:13;;;;;;;20.48;13.82;;;4.90;99.90;;;;;;4939641;28;90359;-36
2022/04/30 01:15:39;;;;;;;18.55;13.20;;;4.90;99.90;;;;;;4938448;28;92248;-35
2022/04/30 01:18:10;;;;;;;16.38;12.05;;;4.90;99.90;;;;;;4939561;28;90872;-39
2022/04/30 01:20:40;;;;;;;20.50;13.32;;;4.90;99.90;;;;;;4938852;28;90525;-34
2022/04/30 01:23:07;;;;;;;15.15;12.68;;;4.90;99.90;;;;;;4939259;28;90080;-34
2022/04/30 01:25:34;;;;;;;14.80;12.18;;;4.80;99.90;;;;;;4938724;28;89863;-37
2022/04/30 01:28:01;;;;;;;16.67;12.75;;;4.80;99.90;;;;;;4938785;28;89569;-32
2022/04/30 01:30:27;;;;;;;18.27;12.80;;;4.80;99.90;;;;;;4921939;28;89130;-33
2022/04/30 01:38:22;;;;;;;16.92;12.02;;;4.80;99.90;;;;;;4919128;28;89577;-33
2022/04/30 01:40:48;;;;;;;20.02;11.55;;;4.70;99.90;;;;;;4919245;28;90653;-35
2022/04/30 01:43:15;;;;;;;15.45;12.48;;;4.70;99.90;;;;;;4919458;28;92020;-34
2022/04/30 01:45:43;;;;;;;21.45;13.45;;;4.70;99.90;;;;;;4919076;28;90585;-33
2022/04/30 01:48:12;;;;;;;18.00;13.43;;;4.70;99.90;;;;;;4919489;28;89849;-38
2022/04/30 01:50:38;;;;;;;16.45;12.18;;;4.70;99.90;;;;;;4922023;28;89840;-33
2022/04/30 01:53:03;;;;;;;17.35;12.50;;;4.60;99.90;;;;;;4922744;28;89781;-32
2022/04/30 01:55:29;;;;;;;19.92;12.60;;;4.60;99.90;;;;;;4922747;28;90453;-33
2022/04/30 01:57:55;;;;;;;16.55;12.95;;;4.60;99.90;;;;;;4923216;28;89517;-32
2022/04/30 02:00:20;;;;;;;18.35;12.57;;;4.60;99.90;;;;;;4922618;28;90053;-35
2022/04/30 02:02:49;;;;;;;14.32;11.70;;;4.60;99.90;;;;;;4922784;28;90642;-33
2022/04/30 02:05:16;;;;;;;;;;;4.50;99.90;;;;;;4923099;28;90802;-32
2022/04/30 02:07:49;;;;;;;16.10;12.20;;;4.50;99.90;;;;;;4923992;28;91023;-32
2022/04/30 02:10:18;;;;;;;16.38;13.02;;;4.50;99.90;;;;;;4923294;28;88771;-34
2022/04/30 02:12:44;;;;;;;21.60;11.15;;;4.50;99.90;;;;;;4923016;28;90231;-32
2022/04/30 02:15:14;;;;;;;17.50;11.68;;;4.50;99.90;;;;;;4922337;28;89694;-32
2022/04/30 02:17:41;;;;;;;17.65;11.50;;;4.40;99.90;;;;;;4921506;28;89814;-33
2022/04/30 02:20:28;;;;;;;14.95;11.40;;;4.40;99.90;;;;;;4922445;28;89413;-36
2022/04/30 02:22:56;;;;;;;17.80;11.75;;;4.40;99.90;;;;;;4922264;28;90115;-35
2022/04/30 02:25:22;;;;;;;15.95;12.15;;;4.40;99.90;;;;;;4923076;28;88416;-32
2022/04/30 02:27:51;;;;;;;21.13;13.05;;;4.40;99.90;;;;;;4921408;28;89492;-35
2022/04/30 02:30:21;;;;;;;18.00;11.68;;;4.40;99.90;;;;;;4921631;28;89638;-36
2022/04/30 02:32:51;;;;;;;17.80;13.40;;;4.40;99.90;;;;;;4921504;28;90235;-32
2022/04/30 02:35:19;;;;;;;15.07;12.73;;;4.40;99.90;;;;;;4921614;28;89357;-37
2022/04/30 02:37:47;;;;;;;17.05;12.82;;;4.40;99.90;;;;;;4921221;28;89979;-36
2022/04/30 02:40:13;;;;;;;16.67;12.95;;;4.50;99.90;;;;;;4922067;28;89766;-37
2022/04/30 02:42:40;;;;;;;16.63;12.90;;;4.40;99.90;;;;;;4921574;28;89111;-36
2022/04/30 02:45:08;;;;;;;18.75;13.52;;;4.50;99.90;;;;;;4921850;28;89573;-35
2022/04/30 02:47:33;;;;;;;19.30;13.13;;;4.50;99.90;;;;;;4922111;28;90150;-32
2022/04/30 02:49:59;;;;;;;13.70;12.02;;;4.40;99.90;;;;;;4905376;28;89439;-33
2022/04/30 02:52:24;;;;;;;18.48;12.52;;;4.40;99.90;;;;;;4921528;28;91726;-36
2022/04/30 02:54:50;;;;;;;17.67;12.63;;;4.40;99.90;;;;;;4921314;28;90628;-33
2022/04/30 02:57:15;;;;;;;13.40;11.27;;;4.40;99.90;;;;;;4922018;28;90972;-35
2022/04/30 02:59:53;;;;;;;16.30;13.55;;;4.40;99.90;;;;;;4921910;28;89760;-33
2022/04/30 03:02:19;;;;;;;19.90;12.87;;;4.40;99.90;;;;;;4922299;28;90976;-33
2022/04/30 03:04:44;;;;;;;15.35;12.43;;;4.40;99.90;;;;;;4921498;28;88958;-34
2022/04/30 03:07:11;;;;;;;14.85;12.90;;;4.40;99.90;;;;;;4921460;28;90313;-31
2022/04/30 03:09:39;;;;;;;17.98;13.25;;;4.40;99.90;;;;;;4904241;28;87859;-36
2022/04/30 03:12:08;;;;;;;15.35;12.88;;;4.40;99.90;;;;;;4921758;28;90301;-35
2022/04/30 03:14:34;;;;;;;16.38;13.10;;;4.40;99.90;;;;;;4921811;28;90846;-33
2022/04/30 03:22:29;;;;;;;18.45;13.82;;;4.50;99.90;;;;;;4921040;28;90612;-35
2022/04/30 03:24:55;;;;;;;14.20;12.27;;;4.50;99.90;;;;;;4921916;28;89510;-32
2022/04/30 03:27:20;;;;;;;15.80;13.38;;;4.50;99.90;;;;;;4921291;28;89721;-36
2022/04/30 03:29:46;;;;;;;20.75;13.23;;;4.40;99.90;;;;;;4921431;28;90034;-34
2022/04/30 03:32:12;;;;;;;16.00;12.23;;;4.50;99.90;;;;;;4921497;28;90409;-32
2022/04/30 03:34:38;;;;;;;16.83;12.73;;;4.40;99.90;;;;;;4920960;28;89828;-35
2022/04/30 03:37:04;;;;;;;15.35;12.65;;;4.40;99.90;;;;;;4921702;28;89884;-33
2022/04/30 03:39:30;;;;;;;15.55;12.90;;;4.40;99.90;;;;;;4921553;28;89393;-33
2022/04/30 03:41:56;;;;;;;18.80;13.55;;;4.40;99.90;;;;;;4920169;28;89199;-35
2022/04/30 03:44:21;;;;;;;17.45;12.82;;;4.40;99.90;;;;;;4920886;28;90343;-33
2022/04/30 03:46:47;;;;;;;17.40;13.35;;;4.40;99.90;;;;;;4920512;28;90720;-33
2022/04/30 03:49:13;;;;;;;19.30;14.25;;;4.40;99.90;;;;;;4921343;28;89234;-33
2022/04/30 03:51:38;;;;;;;20.42;12.80;;;4.40;99.90;;;;;;4920442;28;89166;-36
2022/04/30 03:54:04;;;;;;;19.58;13.60;;;4.40;99.90;;;;;;4921051;28;94272;-38
2022/04/30 03:56:31;;;;;;;20.48;14.45;;;4.40;99.90;;;;;;4921062;28;89606;-33
2022/04/30 03:58:56;;;;;;;14.15;12.63;;;4.40;99.90;;;;;;4920364;28;89876;-34
2022/04/30 04:01:22;;;;;;;17.98;14.23;;;4.40;99.90;;;;;;4921214;28;89251;-35
2022/04/30 04:03:50;;;;;;;14.45;11.93;;;4.40;99.90;;;;;;4920468;28;90255;-36
2022/04/30 04:06:19;;;;;;;14.75;13.27;;;4.40;99.90;;;;;;4920631;28;89895;-32
2022/04/30 04:08:50;;;;;;;16.42;13.13;;;4.40;99.90;;;;;;4920210;28;88577;-32
2022/04/30 04:11:17;;;;;;;17.77;12.75;;;4.40;99.90;;;;;;4919732;28;90402;-34
2022/04/30 04:19:11;;;;;;;16.25;12.63;;;4.50;99.90;;;;;;4920626;28;88203;-33
2022/04/30 04:21:37;;;;;;;23.02;14.07;;;4.60;99.90;;;;;;4920289;28;90318;-35
2022/04/30 04:26:48;;;;;;;18.27;13.00;;;4.80;99.90;;;;;;4920598;28;91010;-32
2022/04/30 04:29:16;;;;;;;18.73;15.18;;;4.90;99.90;;;;;;4920438;28;88397;-32
2022/04/30 04:31:43;;;;;;;18.95;13.15;;;5.10;99.90;;;;;;4919768;28;90379;-36
2022/04/30 04:34:09;;;;;;;19.10;13.25;;;5.20;99.90;;;;;;4919358;28;90336;-35
2022/04/30 04:36:36;;;;;;;18.77;11.95;;;5.30;99.90;;;;;;4919887;28;90475;-38
2022/04/30 04:39:08;;;;;;;19.50;13.38;;;5.40;99.90;;;;;;4920527;28;88330;-35
2022/04/30 04:41:33;;;;;;;15.70;12.40;;;5.30;99.90;;;;;;4920597;28;90168;-32
2022/04/30 04:43:59;;;;;;;16.85;12.07;;;5.30;99.90;;;;;;4920299;28;89770;-36
2022/04/30 04:46:24;;;;;;;16.67;12.55;;;5.30;99.90;;;;;;4920543;28;89558;-33
2022/04/30 04:48:51;;;;;;;21.95;13.23;;;5.30;99.90;;;;;;4919672;28;88981;-33
2022/04/30 04:51:17;;;;;;;16.88;12.25;;;5.40;99.90;;;;;;4919982;28;90222;-35
2022/04/30 04:53:42;;;;;;;19.08;14.05;;;5.40;99.90;;;;;;4920630;28;89614;-33
2022/04/30 04:56:08;;;;;;;19.83;12.18;;;5.40;99.90;;;;;;4920149;28;88866;-32
2022/04/30 04:58:33;;;;;;;18.55;12.73;;;5.50;99.90;;;;;;4920238;28;90346;-31
2022/04/30 05:00:59;;;;;;;18.02;12.32;;;5.60;99.90;;;;;;4919237;28;88754;-32
2022/04/30 05:03:24;;;;;;;19.25;13.05;;;5.70;99.90;;;;;;4920335;28;89568;-37
2022/04/30 05:05:51;;;;;;;18.40;12.93;;;5.80;99.90;;;;;;4920118;28;90284;-35
2022/04/30 05:08:16;;;;;;;16.10;12.93;;;5.90;99.90;;;;;;4920068;28;87735;-33
2022/04/30 05:10:42;;;;;;;14.63;11.95;;;5.90;99.90;;;;;;4919609;28;90432;-36
2022/04/30 05:13:08;;;;;;;16.90;12.65;;;5.80;99.90;;;;;;4919762;28;89733;-37
2022/04/30 05:15:34;;;;;;;17.60;13.00;;;5.70;99.90;;;;;;4920259;28;89719;-37
2022/04/30 05:17:59;;;;;;;13.30;10.93;;;5.80;99.90;;;;;;4919756;28;89214;-35
2022/04/30 05:20:25;;;;;;;19.65;12.80;;;5.80;99.90;;;;;;4919898;28;90321;-37
2022/04/30 05:22:51;;;;;;;14.93;12.40;;;5.80;99.90;;;;;;4919250;28;90954;-36
2022/04/30 05:25:17;;;;;;;17.73;13.20;;;5.90;99.90;;;;;;4922953;28;90308;-35
2022/04/30 05:27:42;;;;;;;15.45;11.93;;;5.80;99.90;;;;;;4923047;28;88005;-32
2022/04/30 05:30:09;;;;;;;13.60;11.85;;;5.80;99.90;;;;;;4923117;28;96092;-33
2022/04/30 05:32:34;;;;;;;20.38;13.07;;;5.90;99.90;;;;;;4921530;28;89792;-38
2022/04/30 05:35:00;;;;;;;13.55;11.93;;;6.00;99.90;;;;;;4923509;28;90838;-32
2022/04/30 05:37:26;;;;;;;13.77;11.75;;;6.10;99.90;;;;;;4922011;28;88993;-32
2022/04/30 05:39:51;;;;;;;17.73;12.40;;;6.10;99.90;;;;;;4923382;28;90705;-32
2022/04/30 05:42:17;;;;;;;14.07;12.40;;;6.20;99.90;;;;;;4922537;28;89590;-35
2022/04/30 05:44:42;;;;;;;14.18;10.77;;;6.20;99.90;;;;;;4922947;28;89567;-37
2022/04/30 05:47:08;;;;;;;14.50;10.48;;;6.30;99.90;;;;;;4922096;28;90748;-35
2022/04/30 05:49:34;;;;;;;14.52;12.60;;;6.40;99.90;;;;;;4922422;28;90268;-36
2022/04/30 05:51:59;;;;;;;16.77;11.68;;;6.40;99.90;;;;;;4923069;28;89616;-32
2022/04/30 05:54:25;;;;;;;17.80;11.88;;;6.50;99.90;;;;;;4922628;28;89480;-35
2022/04/30 05:56:51;;;;;;;14.77;12.10;;;6.60;99.90;;;;;;4923702;28;89133;-33
2022/04/30 05:59:18;;;;;;;14.35;11.50;;;6.70;99.90;;;;;;4941552;28;89920;-36
2022/04/30 06:01:43;;;;;;;14.18;12.45;;;6.80;99.90;;;;;;4941357;28;89696;-33
2022/04/30 06:04:09;;;;;;;19.83;11.32;;;6.90;99.90;;;;;;4942346;28;89492;-37
2022/04/30 06:06:34;;;;;;;15.45;11.13;;;7.10;99.90;;;;;;4941422;28;89601;-36
2022/04/30 06:09:00;;;;;;;12.65;11.27;;;7.30;99.90;;;;;;4942818;28;90206;-34
2022/04/30 06:11:26;;;;;;;12.20;10.68;;;7.40;99.90;;;;;;4941146;28;90808;-35
2022/04/30 06:13:51;;;;;;;14.73;11.70;;;7.70;99.90;;;;;;4941643;28;90487;-35
2022/04/30 06:16:17;;;;;;;15.85;11.88;;;7.70;99.90;;;;;;4942712;28;89411;-34
2022/04/30 06:18:43;;;;;;;14.70;11.80;;;7.90;99.90;;;;;;4941068;28;90192;-35
2022/04/30 06:21:08;;;;;;;12.68;11.23;;;8.10;99.90;;;;;;4942424;28;89688;-36
2022/04/30 06:23:34;;;;;;;14.52;11.50;;;8.20;99.90;;;;;;4941695;28;89983;-36
2022/04/30 06:25:59;;;;;;;12.10;10.43;;;8.20;99.90;;;;;;4941956;28;88237;-34
2022/04/30 06:28:25;;;;;;;12.07;9.30;;;8.30;99.90;;;;;;4941941;28;90949;-35
2022/04/30 06:30:51;;;;;;;14.50;9.85;;;8.30;99.90;;;;;;4942277;28;89650;-34
2022/04/30 06:33:16;;;;;;;12.93;10.00;;;8.30;99.90;;;;;;4942714;28;89614;-31
2022/04/30 06:35:43;;;;;;;12.77;11.43;;;8.40;99.90;;;;;;4939783;28;89265;-33
2022/04/30 06:38:09;;;;;;;16.88;10.30;;;8.50;99.90;;;;;;4941321;28;90098;-36
2022/04/30 06:40:34;;;;;;;13.23;9.50;;;8.60;99.90;;;;;;4941038;28;90705;-37
2022/04/30 06:43:00;;;;;;;15.40;11.40;;;8.80;99.90;;;;;;4942132;28;89722;-35
2022/04/30 06:45:26;;;;;;;12.98;9.90;;;9.10;99.90;;;;;;4942400;28;88311;-34
2022/04/30 06:47:51;;;;;;;11.70;9.48;;;9.50;99.90;;;;;;4935019;28;90758;-34
2022/04/30 06:50:17;;;;;;;16.80;8.75;;;9.80;99.90;;;;;;4936750;28;89486;-35
2022/04/30 06:58:11;;;;;;;15.80;9.40;;;10.00;99.90;;;;;;4939872;28;91423;-35
2022/04/30 07:01:29;;;;;;;11.63;9.98;;;10.30;99.90;;;;;;4938985;28;90554;-32
2022/04/30 07:03:24;;;;;;;12.75;8.65;;;10.40;99.90;;;;;;4927701;28;90518;-33
2022/04/30 07:06:04;;;;;;;9.45;8.55;;;11.00;99.90;;;;;;4939807;28;89470;-32
2022/04/30 07:08:34;;;;;;;11.75;9.55;;;11.20;99.90;;;;;;4939669;28;91311;-33
2022/04/30 07:11:01;;;;;;;8.45;7.63;;;11.00;99.90;;;;;;4940127;28;89723;-35
2022/04/30 07:13:27;;;;;;;8.68;7.85;;;10.90;99.90;;;;;;4938397;28;89838;-34
2022/04/30 07:15:52;;;;;;;10.40;8.52;;;10.80;99.90;;;;;;4938712;28;89629;-37
2022/04/30 07:18:18;;;;;;;12.02;8.25;;;10.70;99.90;;;;;;4939713;28;91448;-35
2022/04/30 07:20:43;;;;;;;10.00;7.32;;;10.60;99.90;;;;;;4939350;28;89646;-37
2022/04/30 07:23:09;;;;;;;14.05;9.43;;;10.60;99.90;;;;;;4939649;28;89877;-33
2022/04/30 07:25:34;;;;;;;10.10;7.75;;;10.80;99.90;;;;;;4939102;28;90162;-36
2022/04/30 07:28:00;;;;;;;10.77;8.73;;;11.00;99.90;;;;;;4939222;28;94427;-34
2022/04/30 07:30:26;;;;;;;8.43;7.63;;;11.00;99.90;;;;;;4939259;28;89532;-32
2022/04/30 07:32:51;;;;;;;6.75;5.72;;;10.90;99.90;;;;;;4939268;28;89622;-32
2022/04/30 07:35:17;;;;;;;8.52;5.88;;;10.80;99.90;;;;;;4939584;28;90079;-35
2022/04/30 07:37:42;;;;;;;12.05;5.63;;;11.30;99.90;;;;;;4938608;28;90395;-32
2022/04/30 07:40:10;;;;;;;6.95;5.63;;;11.40;99.90;;;;;;4938847;28;89665;-35
2022/04/30 07:42:35;;;;;;;8.32;6.57;;;11.30;99.90;;;;;;4938999;28;89124;-35
2022/04/30 07:45:01;;;;;;;10.35;6.78;;;11.20;99.90;;;;;;4922209;28;89170;-36
2022/04/30 07:47:27;;;;;;;10.77;6.60;;;11.30;99.90;;;;;;4920548;28;90720;-34
2022/04/30 07:49:52;;;;;;;8.98;6.38;;;11.10;99.90;;;;;;4937360;28;90634;-33
2022/04/30 07:52:18;;;;;;;10.30;6.50;;;11.30;99.90;;;;;;4928398;28;90516;-32
2022/04/30 07:54:43;;;;;;;9.63;6.20;;;11.30;99.90;;;;;;4933672;28;89200;-31
2022/04/30 07:57:09;;;;;;;9.25;6.25;;;11.30;99.90;;;;;;4919942;28;90316;-34
2022/04/30 07:59:35;;;;;;;6.78;5.82;;;11.00;99.90;;;;;;4929191;28;89718;-37
2022/04/30 08:02:01;;;;;;;11.15;7.57;;;10.90;99.90;;;;;;4938930;28;89464;-36
2022/04/30 08:04:26;;;;;;;9.20;7.25;;;10.90;99.90;;;;;;4939073;28;88294;-34
2022/04/30 08:06:52;;;;;;;11.57;7.00;;;11.00;99.90;;;;;;4938281;28;90938;-32
2022/04/30 08:09:18;;;;;;;9.80;7.50;;;11.00;99.90;;;;;;4938509;28;89763;-35
2022/04/30 08:11:44;;;;;;;9.68;6.90;;;11.30;99.90;;;;;;4938631;28;89142;-33
2022/04/30 08:14:10;;;;;;;7.05;6.35;;;11.20;99.90;;;;;;4939417;28;90129;-34
2022/04/30 08:16:35;;;;;;;7.97;6.38;;;11.40;99.90;;;;;;4938384;28;91454;-35
2022/04/30 08:19:01;;;;;;;10.70;7.78;;;11.50;99.90;;;;;;4938458;28;90086;-34
2022/04/30 08:21:26;;;;;;;13.88;7.15;;;11.20;99.90;;;;;;4938979;28;89553;-34
2022/04/30 08:23:52;;;;;;;6.47;5.82;;;11.20;99.90;;;;;;4938602;28;89108;-31
2022/04/30 08:26:18;;;;;;;9.27;6.57;;;11.20;99.90;;;;;;4938562;28;93071;-35
2022/04/30 08:28:43;;;;;;;9.82;6.38;;;11.10;99.90;;;;;;4938267;28;91525;-35
2022/04/30 08:31:09;;;;;;;12.13;6.72;;;11.10;99.90;;;;;;4938651;28;89222;-36
2022/04/30 08:33:36;;;;;;;8.63;6.95;;;11.20;99.90;;;;;;4938441;28;88839;-35
2022/04/30 08:36:01;;;;;;;8.48;7.57;;;11.10;99.90;;;;;;4937306;28;90630;-35
2022/04/30 08:38:27;;;;;;;8.18;6.65;;;11.10;99.90;;;;;;4938050;28;90610;-37
2022/04/30 08:40:53;;;;;;;8.93;5.50;;;11.10;99.90;;;;;;4937667;28;90089;-36
2022/04/30 08:43:20;;;;;;;9.02;5.95;;;11.30;99.90;;;;;;4938481;28;87997;-33
2022/04/30 08:45:46;;;;;;;12.65;7.68;;;11.20;99.90;;;;;;4938322;28;90329;-33
2022/04/30 08:48:14;;;;;;;9.27;7.18;;;11.40;99.90;;;;;;4937436;28;89620;-34
2022/04/30 08:50:41;;;;;;;9.50;6.87;;;11.30;99.90;;;;;;4938313;28;89682;-34
2022/04/30 08:53:07;;;;;;;11.73;6.47;;;11.40;99.90;;;;;;4938140;28;89000;-36
2022/04/30 08:55:33;;;;;;;8.88;6.35;;;11.40;99.90;;;;;;4937895;28;90973;-32
2022/04/30 08:57:59;;;;;;;9.18;6.68;;;11.20;99.90;;;;;;4936640;28;90271;-35
2022/04/30 09:00:25;;;;;;;8.82;7.22;;;11.10;99.90;;;;;;4937440;28;89528;-32
2022/04/30 09:02:56;;;;;;;7.90;7.18;;;11.30;99.90;;;;;;4937465;28;90253;-32
2022/04/30 09:05:22;;;;;;;8.75;7.65;;;11.40;99.90;;;;;;4938076;28;90855;-33
2022/04/30 09:07:59;;;;;;;8.35;6.72;;;11.10;99.90;;;;;;4937338;28;90334;-32
2022/04/30 09:10:28;;;;;;;11.27;6.65;;;11.30;99.90;;;;;;4937832;28;88418;-36
2022/04/30 09:12:53;;;;;;;10.73;6.20;;;11.40;99.90;;;;;;4938336;28;89498;-35
2022/04/30 09:15:20;;;;;;;7.85;7.00;;;11.60;99.90;;;;;;4938127;28;89960;-32
2022/04/30 09:17:58;;;;;;;10.55;7.13;;;11.80;99.90;;;;;;4937451;28;89744;-34
2022/04/30 09:20:25;;;;;;;6.10;5.50;;;11.90;99.90;;;;;;4937858;28;89749;-34
2022/04/30 09:22:51;;;;;;;5.85;5.22;;;12.00;99.90;;;;;;4938378;28;88917;-34
2022/04/30 09:25:18;;;;;;;13.32;5.53;;;12.10;99.90;;;;;;4937854;28;90504;-36
2022/04/30 09:27:52;;;;;;;10.63;6.45;;;12.70;99.90;;;;;;4937264;28;90666;-37
2022/04/30 09:30:25;;;;;;;7.85;6.65;;;13.00;99.90;;;;;;4937435;28;90550;-34
2022/04/30 09:33:01;;;;;;;6.82;5.78;;;13.00;99.90;;;;;;4937779;28;89147;-35
2022/04/30 09:38:11;;;;;;;7.72;6.60;;;12.80;99.90;;;;;;4938123;28;89675;-35
2022/04/30 09:40:37;;;;;;;7.47;6.70;;;12.50;99.90;;;;;;4937945;28;89616;-34
2022/04/30 09:43:05;;;;;;;6.75;5.53;;;12.30;99.90;;;;;;4937371;28;89636;-32
2022/04/30 09:45:32;;;;;;;7.95;6.93;;;12.30;99.90;;;;;;4938026;28;90374;-31
2022/04/30 09:48:01;;;;;;;6.20;5.18;;;12.50;99.90;;;;;;4938061;28;89090;-36
2022/04/30 09:56:06;;;;;;;8.63;6.95;;;12.90;99.90;;;;;;4937039;28;90053;-32
2022/04/30 09:58:35;;;;;;;8.48;6.15;;;13.00;99.90;;;;;;4937591;28;89802;-36
2022/04/30 10:01:01;;;;;;;7.43;5.72;;;13.10;99.90;;;;;;4937769;28;89592;-36
2022/04/30 10:03:31;;;;;;;8.02;5.68;;;13.50;99.90;;;;;;4937692;28;89340;-36
2022/04/30 10:06:02;;;;;;;7.30;6.57;;;13.30;99.90;;;;;;4936735;28;90653;-32
2022/04/30 10:08:34;;;;;;;8.95;5.90;;;13.10;99.90;;;;;;4936568;28;89430;-38
2022/04/30 10:11:18;;;;;;;6.55;5.82;;;13.30;99.90;;;;;;4938162;28;89346;-33
2022/04/30 10:14:02;;;;;;;8.45;5.93;;;13.10;99.90;;;;;;4938764;28;89373;-33
2022/04/30 10:16:28;;;;;;;6.72;5.30;;;13.10;99.90;;;;;;4940304;28;90478;-35
2022/04/30 10:19:14;;;;;;;7.05;6.45;;;13.00;99.90;;;;;;4939638;28;90659;-33
2022/04/30 10:21:40;;;;;;;6.75;5.80;;;12.70;99.90;;;;;;4940668;28;89992;-35
2022/04/30 10:24:07;;;;;;;5.88;5.28;;;13.00;99.90;;;;;;4941502;28;89179;-32
2022/04/30 10:26:33;;;;;;;7.70;6.88;;;12.80;99.90;;;;;;4940093;28;90426;-34
2022/04/30 10:29:01;;;;;;;7.03;6.28;;;12.80;99.90;;;;;;4940204;28;90670;-35
2022/04/30 10:31:26;;;;;;;8.05;6.15;;;12.80;99.90;;;;;;4940986;28;89564;-33
2022/04/30 10:33:52;;;;;;;9.48;7.13;;;12.90;99.90;;;;;;4940230;28;88421;-33
2022/04/30 10:36:20;;;;;;;7.45;6.75;;;12.90;99.90;;;;;;4939746;28;91316;-33
2022/04/30 10:38:59;;;;;;;7.80;6.40;;;12.90;99.90;;;;;;4940484;28;90293;-34
2022/04/30 10:41:25;;;;;;;9.90;6.93;;;13.00;99.90;;;;;;4940409;28;89397;-36
2022/04/30 10:44:00;;;;;;;8.20;6.75;;;12.80;99.90;;;;;;4939802;28;89339;-33
2022/04/30 10:46:26;;;;;;;6.25;5.45;;;12.50;99.90;;;;;;4940650;28;90762;-34
2022/04/30 10:48:51;;;;;;;8.50;6.80;;;12.70;99.90;;;;;;4940426;28;89886;-33
2022/04/30 10:51:41;;;;;;;6.80;5.95;;;12.60;99.90;;;;;;4939452;28;90267;-35
2022/04/30 10:54:12;;;;;;;9.23;6.47;;;13.00;99.90;;;;;;4922891;28;88918;-35
2022/04/30 10:56:39;;;;;;;12.68;6.43;;;13.00;99.90;;;;;;4922636;28;90148;-33
2022/04/30 10:59:06;;;;;;;10.75;7.00;;;13.00;99.90;;;;;;4922509;28;90821;-34
2022/04/30 11:01:32;;;;;;;8.13;7.10;;;12.70;99.90;;;;;;4940378;28;91736;-33
2022/04/30 11:03:57;;;;;;;7.10;6.20;;;12.30;99.90;;;;;;4939760;28;88849;-35
2022/04/30 11:06:29;;;;;;;10.25;7.68;;;12.20;99.90;;;;;;4938756;28;90002;-36
2022/04/30 11:09:00;;;;;;;12.05;6.97;;;12.20;99.90;;;;;;4938731;28;90618;-34
2022/04/30 11:11:27;;;;;;;12.43;6.57;;;12.10;99.90;;;;;;4939799;28;90338;-35
2022/04/30 11:14:04;;;;;;;10.18;6.75;;;12.20;99.90;;;;;;4938956;28;89206;-33
2022/04/30 11:16:34;;;;;;;12.60;6.77;;;12.30;99.90;;;;;;4940503;28;89450;-32
2022/04/30 11:19:10;;;;;;;7.28;6.57;;;12.40;99.90;;;;;;4939941;28;89328;-35
2022/04/30 11:21:37;;;;;;;9.70;7.68;;;12.40;99.90;;;;;;4939699;28;89746;-33
2022/04/30 11:24:04;;;;;;;15.35;13.73;;;12.30;99.90;;;;;;4939834;28;89045;-36
2022/04/30 11:26:30;;;;;;;8.25;7.25;;;12.30;99.90;;;;;;4939026;28;90879;-35
2022/04/30 11:28:57;;;;;;;7.63;6.35;;;12.30;99.90;;;;;;4939480;28;89642;-34
2022/04/30 11:31:23;;;;;;;12.18;7.18;;;12.40;99.90;;;;;;4939896;28;88959;-33
2022/04/30 11:33:49;;;;;;;6.90;6.28;;;12.40;99.90;;;;;;4938430;28;90634;-36
2022/04/30 11:36:15;;;;;;;9.38;6.70;;;12.40;99.90;;;;;;4939832;28;90127;-36
2022/04/30 11:38:50;;;;;;;10.75;5.90;;;12.60;99.90;;;;;;4938781;28;90187;-34
2022/04/30 11:41:16;;;;;;;7.13;6.43;;;12.60;99.90;;;;;;4939613;28;89264;-35
2022/04/30 11:43:41;;;;;;;6.45;5.45;;;12.60;99.90;;;;;;4939146;28;89886;-32
2022/04/30 11:46:07;;;;;;;6.00;5.55;;;12.90;99.90;;;;;;4939789;28;90486;-33
2022/04/30 11:48:38;;;;;;;8.70;5.90;;;12.90;99.90;;;;;;4922064;28;90111;-33
2022/04/30 11:51:06;;;;;;;10.43;8.40;;;12.80;99.90;;;;;;4939714;28;89981;-34
2022/04/30 11:53:32;;;;;;;6.50;5.80;;;12.50;99.90;;;;;;4938844;28;87876;-32
2022/04/30 11:55:57;;;;;;;7.50;5.40;;;12.70;99.90;;;;;;4938608;28;89745;-34
2022/04/30 11:58:23;;;;;;;9.80;7.10;;;12.90;99.90;;;;;;4939177;28;90706;-32
2022/04/30 12:00:52;;;;;;;17.35;7.32;;;13.10;99.90;;;;;;4938700;28;89394;-35
2022/04/30 12:03:27;;;;;;;5.82;4.88;;;13.00;99.90;;;;;;4939271;28;89178;-34
2022/04/30 12:05:53;;;;;;;8.13;5.10;;;12.80;98.20;;;;;;4939124;28;90176;-36
2022/04/30 12:08:19;;;;;;;6.88;5.40;;;12.80;99.90;;;;;;4938878;28;89567;-33
2022/04/30 12:10:55;;;;;;;7.95;6.38;;;12.80;99.90;;;;;;4938866;28;89037;-35
2022/04/30 12:13:25;;;;;;;6.25;5.65;;;12.70;99.90;;;;;;4939713;28;90106;-32
2022/04/30 12:16:03;;;;;;;6.68;4.47;;;13.10;99.90;;;;;;4939285;28;90078;-34
2022/04/30 12:27:03;;;;;;;6.00;4.93;;;13.20;99.90;;;;;;4939077;28;90928;-33
2022/04/30 12:29:36;;;;;;;5.63;4.50;;;13.40;99.90;;;;;;4937763;28;89906;-35
2022/04/30 12:32:07;;;;;;;5.75;5.18;;;13.70;99.90;;;;;;4939011;28;89608;-34
2022/04/30 12:34:41;;;;;;;5.50;5.00;;;13.10;97.40;;;;;;4938271;28;89466;-32
2022/04/30 12:37:08;;;;;;;8.25;4.57;;;13.20;99.90;;;;;;4985967;22;90299;-31
2022/04/30 12:39:35;;;;;;;6.68;5.25;;;13.60;99.90;;;;;;4938485;28;90264;-36
2022/04/30 12:42:01;;;;;;;6.33;5.73;;;13.60;99.90;;;;;;4939017;28;89577;-33
2022/04/30 12:44:27;;;;;;;5.97;5.38;;;13.40;95.10;;;;;;4938161;28;88563;-35
2022/04/30 12:46:53;;;;;;;15.30;6.38;;;13.10;98.00;;;;;;4936258;28;92794;-34
2022/04/30 12:49:19;;;;;;;11.05;7.63;;;13.40;99.90;;;;;;4937881;28;90607;-33
2022/04/30 12:51:46;;;;;;;6.93;5.72;;;13.30;99.90;;;;;;4937128;28;90085;-32
2022/04/30 12:54:13;;;;;;;8.45;6.72;;;13.70;99.90;;;;;;4938464;28;88323;-33
2022/04/30 12:56:44;;;;;;;7.38;6.70;;;13.50;99.90;;;;;;4938307;28;90344;-33
2022/04/30 12:59:10;;;;;;;11.20;5.55;;;13.60;99.90;;;;;;4938147;28;91818;-33
2022/04/30 13:01:39;;;;;;;7.65;6.05;;;13.10;99.90;;;;;;4920336;28;89640;-34
2022/04/30 13:04:05;;;;;;;5.65;5.13;;;13.10;99.90;;;;;;4938627;28;88457;-36
2022/04/30 13:06:31;;;;;;;9.93;5.93;;;13.10;99.90;;;;;;4938032;28;90535;-32
2022/04/30 13:14:25;;;;;;;8.02;4.90;;;13.10;99.90;;;;;;4937955;28;89332;-34
2022/04/30 13:16:51;;;;;;;7.05;5.50;;;13.40;99.90;;;;;;4937691;28;89086;-35
2022/04/30 13:19:17;;;;;;;7.57;6.05;;;13.50;99.90;;;;;;4937543;28;89700;-36
2022/04/30 13:21:46;;;;;;;7.50;4.53;;;13.40;94.00;;;;;;4937752;28;89251;-33
2022/04/30 13:24:13;;;;;;;6.80;6.20;;;13.30;92.00;;;;;;4937531;28;89421;-33
2022/04/30 13:26:39;;;;;;;5.32;4.70;;;13.10;95.90;;;;;;4937395;28;89375;-33
2022/04/30 13:29:04;;;;;;;4.57;4.18;;;12.80;91.10;;;;;;4937914;28;89698;-36